Great Mills, Maryland
Current Conditions -  °F | °C
As of 3:09 PM on Wednesday 26 Nov 2014 (Local Time) from K2W6 Reporting Station
Overcast Overcast  
Wind Chill: 30°   Ceiling: 500
Heat Index: 37°   Visibility: 10mi
Dew Point: 34°   Wind: 10mph
Humidity: 87%   Direction: 300°WNW
Pressure: 29.85"   Gusts: NA
Location:  38.24°N, 76.5°W
Report Text: K2W6 262009Z AUTO 30009KT 270V330 10SM OVC005 03/01 A2985 RMK AO1
Loading
Personal Weather Stations






























Interactive Weather Map New forecast layout! Learn more

10-Day Weather Forecast

Advertisements
Track Severe Weather on mobile